Dilley, TX (78017)

8:04 PM CDT on September 22, 2014 (GMT -0500)
Cotulla-La Salle County | Change Station
CLOSE
Current Station
Airport
Location: Cotulla,
Elevation: 476 ft
Nearby Weather Stations

Elev 476 ft 28.46 °N, 99.22 °W | Updated 11 minutes ago

Clear
Clear
84 °F
Feels Like 88 °F
N
4
Wind Variable Wind from East

Today
High -- | Low -- °F
--% Chance of Precip.
Yesterday
High -- | Low -- °F
Precip. -- in
7:25 AM 7:33 PM
Waning Crescent, 1% visible
Pressure 29.99 in
Visibility 10.0 miles
Clouds Few 7500 ft
Heat Index 88 °F
Dew Point 69 °F
Humidity 61%
Rainfall 0.00 in
Snow Depth Not available.
UV 0 out of 12
Pollen 9.90 out of 12
Air Quality Not available.
Flu Activity Not available.
METAR KCOT 230053Z AUTO 09003KT 10SM FEW075 29/21 A3001 RMK AO2 SLP155 T02890206

More Conditions Fewer Conditions

Pressure 29.99 in
Visibility 10.0 miles
Clouds Few 7500 ft
Heat Index 88 °F
Dew Point 69 °F
Humidity 61%
Rainfall 0.00 in
Snow Depth Not available.
UV 0 out of 12
Pollen 9.90 out of 12
Air Quality Not available.
Flu Activity Not available.
METAR KCOT 230053Z AUTO 09003KT 10SM FEW075 29/21 A3001 RMK AO2 SLP155 T02890206

More Conditions Fewer Conditions

Nowcast | as of 6:55 PM CDT on September 22, 2014

Through 830 PM CDT...isolated light to showers will drift southwest at 15 mph over portions of south central Texas. Rainfall amounts will be generally less than 1/10 inch. The chance of rain will decrease after dark.

×

10-Day Weather Forecast

Almanac

Astronomy

Sep. 22, 2014 Rise Set
Actual Time 7:25 AM CDT 7:33 PM CDT
Civil Twilight 7:01 AM CDT 7:56 PM CDT
Nautical Twilight 6:34 AM CDT 8:24 PM CDT
Astronomical Twilight 6:06 AM CDT 8:51 PM CDT
Moon 6:00 AM CDT (9/22) 6:38 PM CDT (9/22)
Length of Visible Light 12h 55m
Length of Day
12h 08m
Tomorrow will be 1m 43s shorter.
Waning Crescent, 1% of the Moon is Illuminated
Today
Waning Crescent
Sep 24
New
Oct 1
First Quarter
Oct 8
Full
Oct 15
Last Quarter

Today's Extremes

State Highs State Lows

Community

WunderPhotos

Upload Photos

1,755,579 photos uploaded!

Nearby

Snow Depth

Station Depth Elevation
No new snow has been reported.

Earthquake Activity

City Distance Mag. Time & Date
No recent earthquake activity has been reported nearby.
Minimum magnitude displayed is 2.5.

Coastal Water Temperatures

Place Temperature
No Stations Reporting

Nearby Weather Stations